Barnoldswick, United Kingdom
Current Conditions -  °F | °C
As of 2:20 AM on Thursday 18 Dec 2014 (Local Time) from EGNM Reporting Station
Light Rain Light Rain  
Wind Chill: 50°   Ceiling: 500
Heat Index: 50°   Visibility: 3mi
Dew Point: 50°   Wind: 10mph
Humidity: 100%   Direction: 240°WSW
Pressure: 29.62"   Gusts: NA
Location:  53.92°N, 2.19°W
Report Text: EGNM 180220Z 24009KT 210V280 5000 -RADZ BR SCT003 BKN005 10/10 Q1003
Loading
Personal Weather Stations






























Interactive Weather Map New forecast layout! Learn more

10-Day Weather Forecast

Advertisements
Track Severe Weather on mobile